sensor_id;sensor_type;location;lat;lon;timestamp;pressure;altitude;pressure_sealevel;temperature;humidity
42105;BME280;61464;51.472;5.712;2022-07-21T00:02:00;101593.44;;;18.10;96.67
42105;BME280;61464;51.472;5.712;2022-07-21T00:04:26;101587.19;;;18.11;96.77
42105;BME280;61464;51.472;5.712;2022-07-21T00:06:56;101589.56;;;18.06;96.67
42105;BME280;61464;51.472;5.712;2022-07-21T00:09:23;101588.94;;;18.04;96.94
42105;BME280;61464;51.472;5.712;2022-07-21T00:11:52;101600.38;;;18.18;97.28
42105;BME280;61464;51.472;5.712;2022-07-21T00:19:35;101606.88;;;18.00;96.72
42105;BME280;61464;51.472;5.712;2022-07-21T00:22:07;101598.75;;;18.17;96.77
42105;BME280;61464;51.472;5.712;2022-07-21T00:24:43;101590.13;;;18.01;96.27
42105;BME280;61464;51.472;5.712;2022-07-21T00:27:18;101594.94;;;17.98;96.33
42105;BME280;61464;51.472;5.712;2022-07-21T00:29:44;101607.19;;;18.12;96.68
42105;BME280;61464;51.472;5.712;2022-07-21T00:32:13;101594.31;;;17.96;96.72
42105;BME280;61464;51.472;5.712;2022-07-21T00:37:39;101588.81;;;17.91;97.31
42105;BME280;61464;51.472;5.712;2022-07-21T00:40:08;101591.16;;;17.85;96.92
42105;BME280;61464;51.472;5.712;2022-07-21T00:46:15;101595.00;;;17.83;97.15
42105;BME280;61464;51.472;5.712;2022-07-21T00:48:43;101590.69;;;17.82;97.80
42105;BME280;61464;51.472;5.712;2022-07-21T00:51:11;101580.06;;;17.68;97.88
42105;BME280;61464;51.472;5.712;2022-07-21T00:53:45;101582.81;;;17.82;97.94
42105;BME280;61464;51.472;5.712;2022-07-21T00:59:36;101580.69;;;17.70;97.42
42105;BME280;61464;51.472;5.712;2022-07-21T01:08:36;101591.31;;;17.62;98.27
42105;BME280;61464;51.472;5.712;2022-07-21T01:11:03;101570.59;;;17.53;98.43
42105;BME280;61464;51.472;5.712;2022-07-21T01:13:31;101573.31;;;17.44;98.72
42105;BME280;61464;51.472;5.712;2022-07-21T01:15:59;101575.66;;;17.54;98.58
42105;BME280;61464;51.472;5.712;2022-07-21T01:18:33;101566.22;;;17.60;98.84
42105;BME280;61464;51.472;5.712;2022-07-21T01:21:28;101578.63;;;17.66;98.49
42105;BME280;61464;51.472;5.712;2022-07-21T01:23:57;101568.47;;;17.63;98.65
42105;BME280;61464;51.472;5.712;2022-07-21T01:26:47;101583.25;;;17.64;98.36
42105;BME280;61464;51.472;5.712;2022-07-21T01:30:01;101584.78;;;17.58;98.51
42105;BME280;61464;51.472;5.712;2022-07-21T01:32:37;101563.34;;;17.55;98.45
42105;BME280;61464;51.472;5.712;2022-07-21T01:35:14;101565.91;;;17.48;98.75
42105;BME280;61464;51.472;5.712;2022-07-21T01:37:47;101572.03;;;17.55;99.41
42105;BME280;61464;51.472;5.712;2022-07-21T01:40:42;101574.47;;;17.57;99.74
42105;BME280;61464;51.472;5.712;2022-07-21T02:03:33;101557.47;;;17.53;99.30
42105;BME280;61464;51.472;5.712;2022-07-21T02:06:06;101563.22;;;17.63;99.52
42105;BME280;61464;51.472;5.712;2022-07-21T02:08:34;101566.47;;;17.65;98.64
42105;BME280;61464;51.472;5.712;2022-07-21T02:16:44;101563.38;;;17.76;98.05
42105;BME280;61464;51.472;5.712;2022-07-21T02:19:14;101564.31;;;17.68;98.35
42105;BME280;61464;51.472;5.712;2022-07-21T02:22:11;101557.97;;;17.63;98.23
42105;BME280;61464;51.472;5.712;2022-07-21T02:24:37;101567.50;;;17.64;98.32
42105;BME280;61464;51.472;5.712;2022-07-21T02:29:41;101568.13;;;17.66;97.96
42105;BME280;61464;51.472;5.712;2022-07-21T02:32:20;101572.81;;;17.70;98.03
42105;BME280;61464;51.472;5.712;2022-07-21T03:12:11;101553.50;;;17.78;97.70
42105;BME280;61464;51.472;5.712;2022-07-21T03:20:30;101548.44;;;17.77;98.39
42105;BME280;61464;51.472;5.712;2022-07-21T03:23:36;101562.97;;;17.94;98.01
42105;BME280;61464;51.472;5.712;2022-07-21T03:26:03;101552.31;;;17.81;97.68
42105;BME280;61464;51.472;5.712;2022-07-21T03:34:09;101555.91;;;17.95;97.32
42105;BME280;61464;51.472;5.712;2022-07-21T03:39:10;101577.69;;;17.88;97.23
42105;BME280;61464;51.472;5.712;2022-07-21T03:44:11;101570.16;;;17.85;97.93
42105;BME280;61464;51.472;5.712;2022-07-21T03:46:38;101572.84;;;17.92;97.16
42105;BME280;61464;51.472;5.712;2022-07-21T03:54:29;101561.00;;;17.81;96.33
42105;BME280;61464;51.472;5.712;2022-07-21T03:57:02;101558.38;;;17.81;96.38
42105;BME280;61464;51.472;5.712;2022-07-21T04:02:17;101559.38;;;17.80;96.82
42105;BME280;61464;51.472;5.712;2022-07-21T04:04:45;101568.84;;;17.96;97.01
42105;BME280;61464;51.472;5.712;2022-07-21T04:07:11;101567.59;;;17.92;96.56
42105;BME280;61464;51.472;5.712;2022-07-21T04:09:40;101557.72;;;17.94;96.19
42105;BME280;61464;51.472;5.712;2022-07-21T04:12:16;101556.78;;;18.02;96.54
42105;BME280;61464;51.472;5.712;2022-07-21T04:14:42;101550.56;;;17.88;96.54
42105;BME280;61464;51.472;5.712;2022-07-21T04:17:08;101547.34;;;17.71;96.74
42105;BME280;61464;51.472;5.712;2022-07-21T04:19:37;101555.28;;;17.78;97.04
42105;BME280;61464;51.472;5.712;2022-07-21T04:27:37;101570.78;;;17.87;97.03
42105;BME280;61464;51.472;5.712;2022-07-21T04:30:10;101570.44;;;17.91;97.18
42105;BME280;61464;51.472;5.712;2022-07-21T04:32:39;101568.44;;;17.93;97.06
42105;BME280;61464;51.472;5.712;2022-07-21T04:38:26;101558.66;;;17.72;96.97
42105;BME280;61464;51.472;5.712;2022-07-21T04:40:58;101553.53;;;17.63;97.31
42105;BME280;61464;51.472;5.712;2022-07-21T04:43:29;101564.13;;;17.70;97.63
42105;BME280;61464;51.472;5.712;2022-07-21T04:45:56;101565.38;;;17.74;97.55
42105;BME280;61464;51.472;5.712;2022-07-21T04:48:25;101561.19;;;17.80;96.94
42105;BME280;61464;51.472;5.712;2022-07-21T04:51:00;101571.06;;;17.78;97.05
42105;BME280;61464;51.472;5.712;2022-07-21T04:53:34;101566.19;;;17.75;96.96
42105;BME280;61464;51.472;5.712;2022-07-21T04:55:59;101551.53;;;17.65;97.18
42105;BME280;61464;51.472;5.712;2022-07-21T04:58:25;101551.00;;;17.70;97.14
42105;BME280;61464;51.472;5.712;2022-07-21T05:00:55;101555.69;;;17.75;97.00
42105;BME280;61464;51.472;5.712;2022-07-21T05:03:23;101569.22;;;17.93;96.96
42105;BME280;61464;51.472;5.712;2022-07-21T05:05:52;101562.47;;;17.84;96.79
42105;BME280;61464;51.472;5.712;2022-07-21T05:10:47;101567.91;;;18.04;95.99
42105;BME280;61464;51.472;5.712;2022-07-21T05:13:13;101575.75;;;17.97;95.82
42105;BME280;61464;51.472;5.712;2022-07-21T05:15:39;101577.75;;;17.95;95.77
42105;BME280;61464;51.472;5.712;2022-07-21T05:18:08;101585.44;;;17.97;95.56
42105;BME280;61464;51.472;5.712;2022-07-21T05:20:34;101588.69;;;17.99;96.07
42105;BME280;61464;51.472;5.712;2022-07-21T05:23:00;101581.00;;;17.97;95.73
42105;BME280;61464;51.472;5.712;2022-07-21T05:25:28;101586.97;;;18.13;95.24
42105;BME280;61464;51.472;5.712;2022-07-21T05:27:54;101577.78;;;18.02;95.20
42105;BME280;61464;51.472;5.712;2022-07-21T05:30:24;101570.81;;;18.09;95.02
42105;BME280;61464;51.472;5.712;2022-07-21T05:32:51;101571.47;;;18.18;94.87
42105;BME280;61464;51.472;5.712;2022-07-21T05:35:17;101566.72;;;18.28;93.76
42105;BME280;61464;51.472;5.712;2022-07-21T05:37:43;101576.16;;;18.44;92.65
42105;BME280;61464;51.472;5.712;2022-07-21T05:40:12;101572.06;;;18.41;92.20
42105;BME280;61464;51.472;5.712;2022-07-21T05:42:38;101571.44;;;18.67;91.82
42105;BME280;61464;51.472;5.712;2022-07-21T05:45:06;101563.41;;;18.76;91.25
42105;BME280;61464;51.472;5.712;2022-07-21T05:47:33;101563.94;;;18.93;89.96
42105;BME280;61464;51.472;5.712;2022-07-21T05:50:05;101568.16;;;19.22;88.81
42105;BME280;61464;51.472;5.712;2022-07-21T05:52:31;101569.34;;;19.19;88.47
42105;BME280;61464;51.472;5.712;2022-07-21T05:54:57;101556.97;;;19.13;89.22
42105;BME280;61464;51.472;5.712;2022-07-21T05:57:23;101576.47;;;18.90;89.42
42105;BME280;61464;51.472;5.712;2022-07-21T05:59:49;101571.00;;;18.85;90.03
42105;BME280;61464;51.472;5.712;2022-07-21T06:02:15;101555.09;;;19.07;89.06
42105;BME280;61464;51.472;5.712;2022-07-21T06:04:41;101573.22;;;18.88;88.60
42105;BME280;61464;51.472;5.712;2022-07-21T06:07:07;101553.66;;;18.98;88.42
42105;BME280;61464;51.472;5.712;2022-07-21T06:09:36;101560.16;;;19.02;88.73
42105;BME280;61464;51.472;5.712;2022-07-21T06:12:04;101541.75;;;19.02;88.37
42105;BME280;61464;51.472;5.712;2022-07-21T06:14:30;101562.94;;;18.94;88.81
42105;BME280;61464;51.472;5.712;2022-07-21T06:16:56;101565.16;;;18.90;88.58
42105;BME280;61464;51.472;5.712;2022-07-21T06:19:22;101567.06;;;18.75;89.27
42105;BME280;61464;51.472;5.712;2022-07-21T06:21:48;101572.47;;;18.66;89.45
42105;BME280;61464;51.472;5.712;2022-07-21T06:24:15;101572.00;;;18.56;89.74
42105;BME280;61464;51.472;5.712;2022-07-21T06:26:41;101571.75;;;18.51;90.28
42105;BME280;61464;51.472;5.712;2022-07-21T06:29:07;101565.91;;;18.56;90.15
42105;BME280;61464;51.472;5.712;2022-07-21T06:31:34;101575.88;;;18.60;89.46
42105;BME280;61464;51.472;5.712;2022-07-21T06:34:10;101575.56;;;18.77;88.78
42105;BME280;61464;51.472;5.712;2022-07-21T06:36:48;101571.41;;;18.61;89.45
42105;BME280;61464;51.472;5.712;2022-07-21T06:39:14;101571.59;;;18.81;89.54
42105;BME280;61464;51.472;5.712;2022-07-21T06:41:43;101569.81;;;18.95;88.66
42105;BME280;61464;51.472;5.712;2022-07-21T06:44:09;101578.50;;;19.30;87.54
42105;BME280;61464;51.472;5.712;2022-07-21T06:46:36;101576.09;;;19.35;86.31
42105;BME280;61464;51.472;5.712;2022-07-21T06:49:09;101570.13;;;19.68;85.09
42105;BME280;61464;51.472;5.712;2022-07-21T06:51:39;101590.69;;;20.06;84.26
42105;BME280;61464;51.472;5.712;2022-07-21T06:56:43;101586.63;;;20.23;82.73
42105;BME280;61464;51.472;5.712;2022-07-21T06:59:09;101605.47;;;19.94;83.01
42105;BME280;61464;51.472;5.712;2022-07-21T07:01:35;101600.81;;;19.96;83.71
42105;BME280;61464;51.472;5.712;2022-07-21T07:04:05;101594.28;;;19.85;83.79
42105;BME280;61464;51.472;5.712;2022-07-21T07:06:32;101587.00;;;19.87;83.60
42105;BME280;61464;51.472;5.712;2022-07-21T07:09:02;101594.50;;;19.83;83.42
42105;BME280;61464;51.472;5.712;2022-07-21T07:11:28;101602.47;;;20.10;83.08
42105;BME280;61464;51.472;5.712;2022-07-21T07:13:56;101595.94;;;19.86;83.30
42105;BME280;61464;51.472;5.712;2022-07-21T07:16:27;101587.59;;;19.82;82.97
42105;BME280;61464;51.472;5.712;2022-07-21T07:18:55;101600.22;;;20.07;82.00
42105;BME280;61464;51.472;5.712;2022-07-21T07:21:20;101606.28;;;20.07;81.57
42105;BME280;61464;51.472;5.712;2022-07-21T07:23:46;101592.50;;;19.92;82.17
42105;BME280;61464;51.472;5.712;2022-07-21T07:26:12;101596.97;;;19.98;82.26
42105;BME280;61464;51.472;5.712;2022-07-21T07:28:41;101600.41;;;19.99;82.63
42105;BME280;61464;51.472;5.712;2022-07-21T07:31:07;101587.41;;;19.84;82.61
42105;BME280;61464;51.472;5.712;2022-07-21T07:33:39;101578.66;;;19.77;82.95
42105;BME280;61464;51.472;5.712;2022-07-21T07:36:08;101587.78;;;19.81;83.25
42105;BME280;61464;51.472;5.712;2022-07-21T07:38:58;101591.31;;;20.08;82.96
42105;BME280;61464;51.472;5.712;2022-07-21T07:41:26;101586.38;;;19.85;83.00
42105;BME280;61464;51.472;5.712;2022-07-21T07:43:53;101581.97;;;20.19;81.70
42105;BME280;61464;51.472;5.712;2022-07-21T07:46:19;101584.00;;;20.17;81.93
42105;BME280;61464;51.472;5.712;2022-07-21T07:48:46;101586.03;;;20.21;81.14
42105;BME280;61464;51.472;5.712;2022-07-21T07:51:14;101589.47;;;20.48;79.98
42105;BME280;61464;51.472;5.712;2022-07-21T07:53:41;101581.78;;;20.60;79.48
42105;BME280;61464;51.472;5.712;2022-07-21T07:56:07;101587.41;;;20.90;78.55
42105;BME280;61464;51.472;5.712;2022-07-21T07:58:34;101603.59;;;21.21;78.12
42105;BME280;61464;51.472;5.712;2022-07-21T08:01:00;101588.81;;;21.06;77.85
42105;BME280;61464;51.472;5.712;2022-07-21T08:03:27;101611.88;;;21.31;76.78
42105;BME280;61464;51.472;5.712;2022-07-21T08:05:55;101608.94;;;20.81;77.85
42105;BME280;61464;51.472;5.712;2022-07-21T08:08:25;101602.50;;;20.63;79.06
42105;BME280;61464;51.472;5.712;2022-07-21T08:10:54;101587.25;;;20.25;80.38
42105;BME280;61464;51.472;5.712;2022-07-21T08:13:20;101602.44;;;20.30;80.87
42105;BME280;61464;51.472;5.712;2022-07-21T08:15:47;101600.44;;;20.19;81.23
42105;BME280;61464;51.472;5.712;2022-07-21T08:18:19;101606.47;;;19.93;82.90
42105;BME280;61464;51.472;5.712;2022-07-21T08:20:46;101606.19;;;19.67;84.74
42105;BME280;61464;51.472;5.712;2022-07-21T08:23:13;101611.97;;;19.43;87.91
42105;BME280;61464;51.472;5.712;2022-07-21T08:25:41;101628.06;;;19.20;90.20
42105;BME280;61464;51.472;5.712;2022-07-21T08:28:10;101625.34;;;19.06;91.57
42105;BME280;61464;51.472;5.712;2022-07-21T08:30:39;101623.91;;;19.04;92.32
42105;BME280;61464;51.472;5.712;2022-07-21T08:33:05;101618.63;;;18.97;93.44
42105;BME280;61464;51.472;5.712;2022-07-21T08:35:32;101619.84;;;18.73;94.97
42105;BME280;61464;51.472;5.712;2022-07-21T08:38:15;101624.22;;;18.66;95.31
42105;BME280;61464;51.472;5.712;2022-07-21T08:40:55;101625.81;;;18.60;96.50
42105;BME280;61464;51.472;5.712;2022-07-21T08:43:27;101629.25;;;18.61;96.73
42105;BME280;61464;51.472;5.712;2022-07-21T08:45:54;101624.50;;;18.49;97.37
42105;BME280;61464;51.472;5.712;2022-07-21T08:48:31;101623.06;;;18.47;97.61
42105;BME280;61464;51.472;5.712;2022-07-21T08:51:16;101621.34;;;18.33;97.97
42105;BME280;61464;51.472;5.712;2022-07-21T08:53:46;101613.25;;;18.34;98.63
42105;BME280;61464;51.472;5.712;2022-07-21T08:56:17;101611.00;;;18.31;99.25
42105;BME280;61464;51.472;5.712;2022-07-21T08:59:05;101627.25;;;18.41;99.50
42105;BME280;61464;51.472;5.712;2022-07-21T09:01:34;101604.38;;;18.35;99.47
42105;BME280;61464;51.472;5.712;2022-07-21T09:07:03;101619.59;;;18.18;99.63
42105;BME280;61464;51.472;5.712;2022-07-21T09:09:34;101616.38;;;18.23;99.93
42105;BME280;61464;51.472;5.712;2022-07-21T09:12:03;101610.44;;;18.14;100.00
42105;BME280;61464;51.472;5.712;2022-07-21T09:14:33;101626.22;;;18.14;100.00
42105;BME280;61464;51.472;5.712;2022-07-21T09:17:07;101612.84;;;18.09;100.00
42105;BME280;61464;51.472;5.712;2022-07-21T09:19:37;101622.59;;;18.15;100.00
42105;BME280;61464;51.472;5.712;2022-07-21T09:22:20;101616.28;;;18.09;100.00
42105;BME280;61464;51.472;5.712;2022-07-21T09:24:54;101606.06;;;18.00;100.00
42105;BME280;61464;51.472;5.712;2022-07-21T09:27:25;101620.84;;;18.01;100.00
42105;BME280;61464;51.472;5.712;2022-07-21T09:29:59;101619.25;;;17.85;100.00
42105;BME280;61464;51.472;5.712;2022-07-21T09:32:45;101621.25;;;17.83;100.00
42105;BME280;61464;51.472;5.712;2022-07-21T09:37:54;101623.50;;;17.86;100.00
42105;BME280;61464;51.472;5.712;2022-07-21T09:40:21;101642.78;;;17.93;100.00
42105;BME280;61464;51.472;5.712;2022-07-21T09:42:56;101630.50;;;18.00;100.00
42105;BME280;61464;51.472;5.712;2022-07-21T09:45:38;101629.59;;;18.08;100.00
42105;BME280;61464;51.472;5.712;2022-07-21T09:48:35;101632.03;;;18.09;100.00
42105;BME280;61464;51.472;5.712;2022-07-21T10:01:30;101634.91;;;18.15;100.00
42105;BME280;61464;51.472;5.712;2022-07-21T10:04:23;101631.03;;;18.10;100.00
42105;BME280;61464;51.472;5.712;2022-07-21T10:07:24;101647.75;;;18.03;100.00
42105;BME280;61464;51.472;5.712;2022-07-21T10:10:12;101654.44;;;18.05;100.00
42105;BME280;61464;51.472;5.712;2022-07-21T10:12:40;101646.03;;;17.95;100.00
42105;BME280;61464;51.472;5.712;2022-07-21T10:15:07;101643.41;;;17.95;100.00
42105;BME280;61464;51.472;5.712;2022-07-21T10:17:35;101654.38;;;17.99;100.00
42105;BME280;61464;51.472;5.712;2022-07-21T10:20:18;101650.78;;;17.85;100.00
42105;BME280;61464;51.472;5.712;2022-07-21T10:23:22;101661.53;;;17.90;100.00
42105;BME280;61464;51.472;5.712;2022-07-21T10:25:54;101673.19;;;18.02;100.00
42105;BME280;61464;51.472;5.712;2022-07-21T10:28:23;101661.34;;;17.77;100.00
42105;BME280;61464;51.472;5.712;2022-07-21T10:30:52;101657.28;;;17.89;100.00
42105;BME280;61464;51.472;5.712;2022-07-21T10:34:07;101669.03;;;17.93;100.00
42105;BME280;61464;51.472;5.712;2022-07-21T10:41:48;101683.16;;;17.77;100.00
42105;BME280;61464;51.472;5.712;2022-07-21T10:47:10;101686.81;;;17.76;100.00
42105;BME280;61464;51.472;5.712;2022-07-21T10:50:03;101681.53;;;17.61;100.00
42105;BME280;61464;51.472;5.712;2022-07-21T10:55:55;101680.47;;;17.85;100.00
42105;BME280;61464;51.472;5.712;2022-07-21T10:58:30;101686.97;;;17.89;100.00
42105;BME280;61464;51.472;5.712;2022-07-21T11:01:22;101699.13;;;17.91;100.00
42105;BME280;61464;51.472;5.712;2022-07-21T11:04:10;101699.38;;;17.96;100.00
42105;BME280;61464;51.472;5.712;2022-07-21T11:06:44;101688.88;;;17.96;99.98
42105;BME280;61464;51.472;5.712;2022-07-21T11:09:14;101697.59;;;18.18;99.33
42105;BME280;61464;51.472;5.712;2022-07-21T11:12:06;101693.78;;;17.99;98.29
42105;BME280;61464;51.472;5.712;2022-07-21T11:14:43;101699.72;;;18.29;98.88
42105;BME280;61464;51.472;5.712;2022-07-21T11:17:31;101699.94;;;18.27;97.85
42105;BME280;61464;51.472;5.712;2022-07-21T11:19:57;101709.69;;;18.55;97.25
42105;BME280;61464;51.472;5.712;2022-07-21T11:22:28;101701.19;;;18.32;96.74
42105;BME280;61464;51.472;5.712;2022-07-21T11:25:02;101692.25;;;18.26;98.31
42105;BME280;61464;51.472;5.712;2022-07-21T11:27:34;101692.81;;;18.21;97.80
42105;BME280;61464;51.472;5.712;2022-07-21T11:30:07;101698.41;;;18.18;98.18
42105;BME280;61464;51.472;5.712;2022-07-21T11:32:35;101705.34;;;18.04;98.61
42105;BME280;61464;51.472;5.712;2022-07-21T11:35:05;101686.06;;;17.67;99.28
42105;BME280;61464;51.472;5.712;2022-07-21T11:37:37;101699.72;;;17.78;100.00
42105;BME280;61464;51.472;5.712;2022-07-21T11:42:35;101698.84;;;17.56;100.00
42105;BME280;61464;51.472;5.712;2022-07-21T11:45:03;101717.13;;;17.49;100.00
42105;BME280;61464;51.472;5.712;2022-07-21T11:47:33;101709.38;;;17.56;100.00
42105;BME280;61464;51.472;5.712;2022-07-21T11:50:03;101708.28;;;17.50;100.00
42105;BME280;61464;51.472;5.712;2022-07-21T11:52:32;101698.13;;;17.47;100.00
42105;BME280;61464;51.472;5.712;2022-07-21T11:55:12;101707.81;;;17.46;100.00
42105;BME280;61464;51.472;5.712;2022-07-21T11:57:46;101705.44;;;17.37;100.00
42105;BME280;61464;51.472;5.712;2022-07-21T12:00:15;101707.72;;;17.40;100.00
42105;BME280;61464;51.472;5.712;2022-07-21T12:03:05;101709.63;;;17.31;100.00
42105;BME280;61464;51.472;5.712;2022-07-21T12:05:35;101712.88;;;17.33;100.00
42105;BME280;61464;51.472;5.712;2022-07-21T12:08:01;101719.28;;;17.30;100.00
42105;BME280;61464;51.472;5.712;2022-07-21T12:10:29;101714.56;;;17.26;100.00
42105;BME280;61464;51.472;5.712;2022-07-21T12:13:04;101725.97;;;17.18;100.00
42105;BME280;61464;51.472;5.712;2022-07-21T12:15:34;101713.03;;;17.17;100.00
42105;BME280;61464;51.472;5.712;2022-07-21T12:18:18;101713.38;;;17.14;100.00
42105;BME280;61464;51.472;5.712;2022-07-21T12:20:43;101712.28;;;17.08;100.00
42105;BME280;61464;51.472;5.712;2022-07-21T12:23:26;101721.19;;;17.22;100.00
42105;BME280;61464;51.472;5.712;2022-07-21T12:25:54;101708.06;;;17.22;100.00
42105;BME280;61464;51.472;5.712;2022-07-21T12:28:44;101716.22;;;17.27;100.00
42105;BME280;61464;51.472;5.712;2022-07-21T12:31:17;101719.38;;;17.22;100.00
42105;BME280;61464;51.472;5.712;2022-07-21T12:33:47;101723.63;;;17.23;100.00
42105;BME280;61464;51.472;5.712;2022-07-21T12:36:14;101714.13;;;17.22;100.00
42105;BME280;61464;51.472;5.712;2022-07-21T12:38:45;101731.44;;;17.32;100.00
42105;BME280;61464;51.472;5.712;2022-07-21T12:41:15;101724.44;;;17.24;100.00
42105;BME280;61464;51.472;5.712;2022-07-21T12:43:55;101717.53;;;17.08;100.00
42105;BME280;61464;51.472;5.712;2022-07-21T12:46:51;101727.94;;;17.16;100.00
42105;BME280;61464;51.472;5.712;2022-07-21T12:49:25;101721.63;;;17.11;100.00
42105;BME280;61464;51.472;5.712;2022-07-21T12:52:01;101729.28;;;17.12;100.00
42105;BME280;61464;51.472;5.712;2022-07-21T12:54:27;101722.44;;;17.11;100.00
42105;BME280;61464;51.472;5.712;2022-07-21T12:57:04;101721.16;;;17.07;100.00
42105;BME280;61464;51.472;5.712;2022-07-21T12:59:30;101720.56;;;17.35;100.00
42105;BME280;61464;51.472;5.712;2022-07-21T13:01:56;101731.16;;;17.41;100.00
42105;BME280;61464;51.472;5.712;2022-07-21T13:04:23;101723.38;;;17.48;100.00
42105;BME280;61464;51.472;5.712;2022-07-21T13:06:49;101719.66;;;17.57;100.00
42105;BME280;61464;51.472;5.712;2022-07-21T13:09:31;101724.19;;;17.48;100.00
42105;BME280;61464;51.472;5.712;2022-07-21T13:12:01;101728.16;;;17.59;100.00
42105;BME280;61464;51.472;5.712;2022-07-21T13:14:36;101724.19;;;17.48;100.00
42105;BME280;61464;51.472;5.712;2022-07-21T13:17:25;101743.84;;;17.67;100.00
42105;BME280;61464;51.472;5.712;2022-07-21T13:19:54;101724.09;;;17.57;100.00
42105;BME280;61464;51.472;5.712;2022-07-21T13:22:19;101734.06;;;17.76;100.00
42105;BME280;61464;51.472;5.712;2022-07-21T13:27:35;101748.13;;;17.83;100.00
42105;BME280;61464;51.472;5.712;2022-07-21T13:30:37;101733.69;;;18.09;100.00
42105;BME280;61464;51.472;5.712;2022-07-21T13:33:04;101730.72;;;17.82;100.00
42105;BME280;61464;51.472;5.712;2022-07-21T13:35:30;101736.25;;;17.87;100.00
42105;BME280;61464;51.472;5.712;2022-07-21T13:37:58;101744.56;;;17.76;100.00
42105;BME280;61464;51.472;5.712;2022-07-21T13:40:32;101735.28;;;17.88;100.00
42105;BME280;61464;51.472;5.712;2022-07-21T13:43:00;101729.47;;;17.93;99.75
42105;BME280;61464;51.472;5.712;2022-07-21T13:45:30;101734.88;;;17.92;98.86
42105;BME280;61464;51.472;5.712;2022-07-21T13:47:57;101742.84;;;17.98;98.69
42105;BME280;61464;51.472;5.712;2022-07-21T13:51:02;101737.34;;;17.93;99.31
42105;BME280;61464;51.472;5.712;2022-07-21T13:53:29;101748.63;;;17.79;99.48
42105;BME280;61464;51.472;5.712;2022-07-21T13:56:00;101739.50;;;17.89;99.97
42105;BME280;61464;51.472;5.712;2022-07-21T13:58:28;101754.97;;;17.55;99.24
42105;BME280;61464;51.472;5.712;2022-07-21T14:00:54;101752.91;;;17.50;100.00
42105;BME280;61464;51.472;5.712;2022-07-21T14:03:20;101751.41;;;17.33;100.00
42105;BME280;61464;51.472;5.712;2022-07-21T14:05:50;101753.53;;;17.52;100.00
42105;BME280;61464;51.472;5.712;2022-07-21T14:08:21;101752.53;;;17.68;100.00
42105;BME280;61464;51.472;5.712;2022-07-21T14:10:48;101756.63;;;17.85;100.00
42105;BME280;61464;51.472;5.712;2022-07-21T14:13:14;101753.63;;;18.03;100.00
42105;BME280;61464;51.472;5.712;2022-07-21T14:15:41;101755.00;;;17.99;99.45
42105;BME280;61464;51.472;5.712;2022-07-21T14:18:13;101755.34;;;17.81;99.40
42105;BME280;61464;51.472;5.712;2022-07-21T14:20:39;101745.47;;;17.98;99.73
42105;BME280;61464;51.472;5.712;2022-07-21T14:23:05;101765.13;;;18.17;98.77
42105;BME280;61464;51.472;5.712;2022-07-21T14:25:34;101757.53;;;18.07;97.04
42105;BME280;61464;51.472;5.712;2022-07-21T14:28:45;101749.59;;;18.22;97.48
42105;BME280;61464;51.472;5.712;2022-07-21T14:31:24;101762.53;;;18.39;96.68
42105;BME280;61464;51.472;5.712;2022-07-21T14:33:59;101758.69;;;18.20;96.60
42105;BME280;61464;51.472;5.712;2022-07-21T14:36:38;101760.81;;;17.95;96.33
42105;BME280;61464;51.472;5.712;2022-07-21T14:39:25;101758.69;;;17.90;97.88
42105;BME280;61464;51.472;5.712;2022-07-21T14:41:57;101771.94;;;17.97;97.75
42105;BME280;61464;51.472;5.712;2022-07-21T14:47:54;101775.47;;;17.89;100.00
42105;BME280;61464;51.472;5.712;2022-07-21T14:53:05;101768.56;;;17.43;100.00
42105;BME280;61464;51.472;5.712;2022-07-21T14:55:35;101778.50;;;17.48;100.00
42105;BME280;61464;51.472;5.712;2022-07-21T14:58:16;101764.09;;;17.44;100.00
42105;BME280;61464;51.472;5.712;2022-07-21T15:00:49;101781.84;;;17.57;100.00
42105;BME280;61464;51.472;5.712;2022-07-21T15:03:24;101768.91;;;17.40;100.00
42105;BME280;61464;51.472;5.712;2022-07-21T15:06:04;101786.38;;;17.48;100.00
42105;BME280;61464;51.472;5.712;2022-07-21T15:08:44;101781.03;;;17.41;100.00
42105;BME280;61464;51.472;5.712;2022-07-21T15:11:17;101779.63;;;17.30;100.00
42105;BME280;61464;51.472;5.712;2022-07-21T15:17:06;101783.56;;;17.12;100.00
42105;BME280;61464;51.472;5.712;2022-07-21T15:19:40;101790.56;;;17.19;100.00
42105;BME280;61464;51.472;5.712;2022-07-21T15:22:14;101778.56;;;17.25;100.00
42105;BME280;61464;51.472;5.712;2022-07-21T15:24:44;101793.31;;;17.41;100.00
42105;BME280;61464;51.472;5.712;2022-07-21T15:27:14;101780.66;;;17.44;100.00
42105;BME280;61464;51.472;5.712;2022-07-21T15:29:41;101795.16;;;17.55;100.00
42105;BME280;61464;51.472;5.712;2022-07-21T15:32:09;101783.28;;;17.44;100.00
42105;BME280;61464;51.472;5.712;2022-07-21T15:34:42;101786.00;;;17.51;100.00
42105;BME280;61464;51.472;5.712;2022-07-21T15:37:10;101782.09;;;17.47;100.00
42105;BME280;61464;51.472;5.712;2022-07-21T15:39:42;101793.88;;;17.51;100.00
42105;BME280;61464;51.472;5.712;2022-07-21T15:42:12;101781.91;;;17.34;100.00
42105;BME280;61464;51.472;5.712;2022-07-21T15:44:40;101781.56;;;17.37;100.00
42105;BME280;61464;51.472;5.712;2022-07-21T15:47:09;101789.19;;;17.46;100.00
42105;BME280;61464;51.472;5.712;2022-07-21T15:49:38;101797.69;;;17.48;100.00
42105;BME280;61464;51.472;5.712;2022-07-21T15:52:05;101780.75;;;17.36;100.00
42105;BME280;61464;51.472;5.712;2022-07-21T15:54:38;101780.19;;;17.41;100.00
42105;BME280;61464;51.472;5.712;2022-07-21T15:57:04;101786.47;;;17.40;100.00
42105;BME280;61464;51.472;5.712;2022-07-21T15:59:32;101786.16;;;17.35;100.00